This is the latest recevied weather packets stored in our database for station/object KD7AWQ. If no packets are shown the sender has not sent any weather packets the latest 1 day(s).
| Time | Temp. | Humidity | Pressure | Rain* | Wind** | Luminosity | Snow |
|---|---|---|---|---|---|---|---|
| 1778066851 | 11.11° C | 44% | 1184.1 hPa | 0 mm | - | 0 W/m² | - |
| 1778066549 | 11.11° C | 44% | 1184.1 hPa | 0 mm | - | 0 W/m² | - |
| 1778066246 | 10.56° C | 44% | 1184.3 hPa | 0 mm | - | 0 W/m² | - |
| 1778064430 | 11.11° C | 43% | 1184.1 hPa | 0 mm | - | 0 W/m² | - |
| 1778063824 | 10.56° C | 48% | 1183.9 hPa | 0 mm | - | 0 W/m² | - |
| 1778063521 | 10° C | 48% | 1183.9 hPa | 0 mm | - | 0 W/m² | - |
| 1778063219 | 11.11° C | 48% | 1184 hPa | 0 mm | - | 0 W/m² | - |
| 1778062613 | 11.67° C | 43% | 1183.8 hPa | 0 mm | - | 0 W/m² | - |
| 1778062310 | 11.11° C | 45% | 1183.8 hPa | 0 mm | - | 0 W/m² | - |
| 1778061706 | 11.11° C | 42% | 1183.9 hPa | 0 mm | - | 0 W/m² | - |
| 1778061404 | 11.11° C | 46% | 1183.7 hPa | 0 mm | - | 0 W/m² | - |
| 1778060798 | 10.56° C | 46% | 1183.8 hPa | 0 mm | - | 0 W/m² | - |
| 1778060496 | 10° C | 49% | 1183.8 hPa | 0 mm | - | 0 W/m² | - |
| 1778060194 | 10° C | 50% | 1183.7 hPa | 0 mm | - | 0 W/m² | - |
| 1778059891 | 10.56° C | 50% | 1183.9 hPa | 0 mm | - | 0 W/m² | - |
| 1778059589 | 10.56° C | 48% | 1183.6 hPa | 0 mm | - | 0 W/m² | - |
| 1778058681 | 12.22° C | 45% | 1183.6 hPa | 0 mm | - | 0 W/m² | - |
| 1778058379 | 11.67° C | 45% | 1183.5 hPa | 0 mm | - | 0 W/m² | - |
| 1778057772 | 11.67° C | 46% | 1183.7 hPa | 0 mm | - | 0 W/m² | - |
| 1778057468 | 11.67° C | 47% | 1183.6 hPa | 0 mm | - | 0 W/m² | - |
| 1778057165 | 11.67° C | 46% | 1183.7 hPa | 0 mm | - | 0 W/m² | - |
| 1778056256 | 11.11° C | 48% | 1183.5 hPa | 0 mm | - | 0 W/m² | - |
| 1778055648 | 10.56° C | 52% | 1183.8 hPa | 0 mm | - | 0 W/m² | - |
| 1778054741 | 10° C | 56% | 1183.7 hPa | 0 mm | - | 0 W/m² | - |
| 1778054438 | 10.56° C | 54% | 1183.6 hPa | 0 mm | - | 0 W/m² | - |
* Rain latest hour (hover to see other rain measurements)
** Current wind speed in m/s (hover to see current wind gust speed)